createdAt,value
2023-02-09T00:02:18.129Z,39.40
2023-02-09T00:04:46.282Z,41.28
2023-02-09T00:07:15.679Z,41.53
2023-02-09T00:09:44.958Z,40.55
2023-02-09T00:12:31.110Z,43.83
2023-02-09T00:15:00.278Z,38.70
2023-02-09T00:17:28.510Z,41.63
2023-02-09T00:19:56.560Z,41.50
2023-02-09T00:22:26.119Z,39.70
2023-02-09T00:24:57.576Z,45.95
2023-02-09T00:27:25.761Z,41.60
2023-02-09T00:29:54.231Z,47.38
2023-02-09T00:32:22.726Z,44.58
2023-02-09T00:34:53.452Z,46.40
2023-02-09T00:37:21.878Z,47.20
2023-02-09T00:39:51.241Z,41.47
2023-02-09T00:42:19.796Z,48.22
2023-02-09T00:44:48.065Z,53.58
2023-02-09T00:47:16.129Z,51.53
2023-02-09T00:49:47.317Z,47.50
2023-02-09T00:52:15.450Z,46.92
2023-02-09T00:54:46.503Z,49.28
2023-02-09T00:57:16.132Z,41.47
2023-02-09T00:59:44.548Z,45.15
2023-02-09T01:02:12.751Z,44.08
2023-02-09T01:04:40.964Z,39.30
2023-02-09T01:07:09.349Z,44.95
2023-02-09T01:09:38.398Z,45.65
2023-02-09T01:12:06.908Z,48.38
2023-02-09T01:14:36.515Z,45.95
2023-02-09T01:17:04.881Z,51.20
2023-02-09T01:19:35.541Z,42.20
2023-02-09T01:22:04.133Z,46.75
2023-02-09T01:24:32.080Z,43.15
2023-02-09T01:27:00.232Z,47.75
2023-02-09T01:29:28.282Z,43.92
2023-02-09T01:31:57.705Z,45.17
2023-02-09T01:34:25.828Z,43.25
2023-02-09T01:36:54.130Z,47.53
2023-02-09T01:39:22.652Z,41.72
2023-02-09T01:41:53.188Z,39.47
2023-02-09T01:45:13.286Z,43.42
2023-02-09T01:47:46.120Z,44.58
2023-02-09T01:50:15.433Z,41.42
2023-02-09T01:52:43.900Z,47.47
2023-02-09T01:55:15.287Z,45.60
2023-02-09T01:57:46.551Z,42.95
2023-02-09T02:00:17.409Z,45.55
2023-02-09T02:02:50.502Z,43.50
2023-02-09T02:05:18.955Z,46.65
2023-02-09T02:07:51.010Z,43.83
2023-02-09T02:10:19.448Z,46.90
2023-02-09T02:12:48.457Z,49.50
2023-02-09T02:15:16.684Z,45.72
2023-02-09T02:18:09.380Z,44.25
2023-02-09T02:21:15.329Z,37.35
2023-02-09T02:23:49.656Z,41.33
2023-02-09T02:26:35.006Z,43.90
2023-02-09T02:29:35.252Z,43.28
2023-02-09T02:32:17.959Z,42.60
2023-02-09T02:34:49.622Z,42.00
2023-02-09T02:37:35.525Z,40.08
2023-02-09T02:40:11.450Z,42.20
2023-02-09T02:42:50.163Z,40.85
2023-02-09T02:45:29.151Z,41.15
2023-02-09T02:48:02.970Z,40.75
2023-02-09T02:50:32.267Z,39.35
2023-02-09T02:53:04.646Z,40.72
2023-02-09T02:55:36.152Z,38.63
2023-02-09T02:58:08.820Z,44.38
2023-02-09T03:00:40.458Z,38.90
2023-02-09T03:03:13.406Z,39.38
2023-02-09T03:05:42.937Z,35.05
2023-02-09T03:08:11.290Z,35.10
2023-02-09T03:10:41.259Z,42.47
2023-02-09T03:13:28.743Z,37.15
2023-02-09T03:16:05.887Z,31.55
2023-02-09T03:18:45.660Z,35.97
2023-02-09T03:21:17.045Z,40.17
2023-02-09T03:23:48.811Z,39.78
2023-02-09T03:26:33.326Z,36.45
2023-02-09T03:29:05.468Z,40.85
2023-02-09T03:31:34.052Z,31.10
2023-02-09T03:34:03.355Z,36.83
2023-02-09T03:36:34.226Z,35.58
2023-02-09T03:39:02.819Z,38.55
2023-02-09T03:41:30.916Z,34.35
2023-02-09T03:44:17.982Z,40.17
2023-02-09T03:46:46.102Z,34.60
2023-02-09T03:49:15.426Z,35.53
2023-02-09T03:51:43.627Z,30.73
2023-02-09T03:54:11.992Z,48.15
2023-02-09T03:56:40.035Z,31.98
2023-02-09T03:59:08.561Z,39.95
2023-02-09T04:01:36.836Z,35.88
2023-02-09T04:04:07.707Z,35.63
2023-02-09T04:06:37.266Z,36.92
2023-02-09T04:09:06.744Z,34.33
2023-02-09T04:11:35.182Z,34.58
2023-02-09T04:14:03.356Z,37.72
2023-02-09T04:16:32.318Z,34.70
2023-02-09T04:19:00.351Z,39.95
2023-02-09T04:21:30.626Z,36.15
2023-02-09T04:24:00.212Z,38.88
2023-02-09T04:26:28.420Z,39.88
2023-02-09T04:28:56.360Z,38.92
2023-02-09T04:31:24.845Z,36.10
2023-02-09T04:33:53.212Z,38.30
2023-02-09T04:36:23.318Z,32.22
2023-02-09T04:38:52.151Z,34.88
2023-02-09T04:41:21.865Z,35.42
2023-02-09T04:43:50.462Z,37.88
2023-02-09T04:46:21.666Z,39.15
2023-02-09T04:48:49.725Z,38.53
2023-02-09T04:51:17.967Z,35.20
2023-02-09T04:53:47.307Z,37.28
2023-02-09T04:56:18.394Z,37.58
2023-02-09T04:59:05.627Z,37.83
2023-02-09T05:01:33.758Z,44.97
2023-02-09T05:04:03.460Z,38.35
2023-02-09T05:06:31.985Z,34.70
2023-02-09T05:09:00.048Z,36.40
2023-02-09T05:11:28.386Z,35.78
2023-02-09T05:13:58.027Z,39.95
2023-02-09T05:16:26.417Z,40.65
2023-02-09T05:18:55.496Z,35.08
2023-02-09T05:21:23.485Z,36.17
2023-02-09T05:23:51.757Z,36.35
2023-02-09T05:26:19.860Z,39.35
2023-02-09T05:28:48.970Z,44.90
2023-02-09T05:31:19.034Z,37.40
2023-02-09T05:33:48.860Z,33.88
2023-02-09T05:36:17.340Z,36.47
2023-02-09T05:38:45.410Z,42.85
2023-02-09T05:41:36.608Z,41.35
2023-02-09T05:44:05.013Z,43.33
2023-02-09T05:46:34.600Z,40.22
2023-02-09T05:49:02.608Z,36.45
2023-02-09T05:51:32.934Z,40.53
2023-02-09T05:54:01.346Z,40.75
2023-02-09T05:56:30.418Z,37.80
2023-02-09T05:58:58.423Z,43.80
2023-02-09T06:01:26.639Z,39.40
2023-02-09T06:03:57.016Z,44.53
2023-02-09T06:06:25.131Z,45.05
2023-02-09T06:08:53.466Z,44.72
2023-02-09T06:11:21.815Z,45.28
2023-02-09T06:13:51.217Z,42.55
2023-02-09T06:16:19.334Z,40.83
2023-02-09T06:18:48.922Z,43.13
2023-02-09T06:21:18.567Z,40.63
2023-02-09T06:23:47.041Z,38.25
2023-02-09T06:26:18.429Z,37.20
2023-02-09T06:28:47.040Z,37.45
2023-02-09T06:31:16.449Z,35.20
2023-02-09T06:33:45.894Z,37.33
2023-02-09T06:36:13.937Z,32.92
2023-02-09T06:38:43.505Z,38.75
2023-02-09T06:41:11.710Z,38.05
2023-02-09T06:43:40.232Z,34.55
2023-02-09T06:46:09.414Z,39.45
2023-02-09T06:48:38.419Z,40.65
2023-02-09T06:51:10.546Z,36.42
2023-02-09T06:56:09.879Z,35.83
2023-02-09T06:58:38.892Z,36.80
2023-02-09T07:01:08.993Z,32.30
2023-02-09T07:03:37.872Z,41.63
2023-02-09T07:06:07.876Z,39.08
2023-02-09T07:08:38.530Z,37.38
2023-02-09T07:11:10.211Z,32.38
2023-02-09T07:13:38.496Z,37.30
2023-02-09T07:16:09.246Z,46.45
2023-02-09T07:18:37.787Z,35.00
2023-02-09T07:21:08.036Z,39.08
2023-02-09T07:23:36.367Z,38.38
2023-02-09T07:26:05.363Z,40.13
2023-02-09T07:28:36.197Z,39.67
2023-02-09T07:31:05.995Z,35.50
2023-02-09T07:33:37.180Z,39.40
2023-02-09T07:36:06.407Z,37.20
2023-02-09T07:38:36.097Z,34.25
2023-02-09T07:41:06.434Z,34.63
2023-02-09T07:43:36.311Z,32.33
2023-02-09T07:46:06.167Z,35.22
2023-02-09T07:48:34.865Z,33.30
2023-02-09T07:51:03.120Z,35.60
2023-02-09T07:53:31.613Z,32.00
2023-02-09T07:55:59.758Z,25.50
2023-02-09T07:58:27.833Z,33.40
2023-02-09T08:01:04.826Z,37.70
2023-02-09T08:03:33.483Z,32.92
2023-02-09T08:06:03.113Z,32.10
2023-02-09T08:08:34.218Z,27.58
2023-02-09T08:11:04.676Z,29.40
2023-02-09T08:13:35.677Z,29.95
2023-02-09T08:16:07.227Z,26.80
2023-02-09T08:18:37.498Z,30.63
2023-02-09T08:21:06.840Z,28.33
2023-02-09T08:23:36.952Z,28.92
2023-02-09T08:26:11.080Z,26.40
2023-02-09T08:28:45.093Z,28.85
2023-02-09T08:31:16.800Z,29.67
2023-02-09T08:33:46.889Z,23.95
2023-02-09T08:36:16.487Z,31.38
2023-02-09T08:38:47.436Z,27.98
2023-02-09T08:41:16.888Z,26.75
2023-02-09T08:43:48.851Z,22.83
2023-02-09T08:46:19.302Z,23.92
2023-02-09T08:48:47.889Z,27.70
2023-02-09T08:51:18.628Z,23.98
2023-02-09T08:53:52.221Z,26.65
2023-02-09T08:56:21.080Z,23.33
2023-02-09T08:58:50.467Z,26.42
2023-02-09T09:01:20.542Z,24.15
2023-02-09T09:03:49.498Z,28.38
2023-02-09T09:06:17.983Z,24.75
2023-02-09T09:08:46.524Z,26.02
2023-02-09T09:11:15.082Z,23.70
2023-02-09T09:13:44.056Z,26.40
2023-02-09T09:16:16.519Z,25.60
2023-02-09T09:18:46.722Z,25.67
2023-02-09T09:21:17.561Z,26.30
2023-02-09T09:23:48.022Z,26.88
2023-02-09T09:26:16.491Z,26.33
2023-02-09T09:28:44.848Z,31.02
2023-02-09T09:31:15.019Z,29.05
2023-02-09T09:33:51.744Z,22.85
2023-02-09T09:36:20.764Z,29.77
2023-02-09T09:38:49.165Z,26.60
2023-02-09T09:41:24.399Z,26.23
2023-02-09T09:43:54.032Z,23.55
2023-02-09T09:46:25.183Z,27.30
2023-02-09T09:48:58.788Z,25.38
2023-02-09T09:51:35.199Z,23.52
2023-02-09T09:54:04.772Z,32.85
2023-02-09T09:56:34.746Z,25.15
2023-02-09T09:59:03.393Z,23.05
2023-02-09T10:01:34.726Z,26.63
2023-02-09T10:04:10.573Z,22.67
2023-02-09T10:06:42.325Z,23.55
2023-02-09T10:09:17.950Z,24.13
2023-02-09T10:11:51.336Z,22.50
2023-02-09T10:14:21.013Z,23.08
2023-02-09T10:16:50.446Z,21.00
2023-02-09T10:19:22.432Z,21.70
2023-02-09T10:21:51.624Z,22.80
2023-02-09T10:24:25.577Z,23.60
2023-02-09T10:27:08.956Z,22.90
2023-02-09T10:29:37.849Z,20.38
2023-02-09T10:32:09.546Z,23.77
2023-02-09T10:34:46.735Z,23.25
2023-02-09T10:37:23.745Z,20.92
2023-02-09T10:40:00.497Z,23.77
2023-02-09T10:42:32.790Z,21.25
2023-02-09T10:45:07.723Z,22.50
2023-02-09T10:47:36.476Z,19.58
2023-02-09T10:50:17.205Z,22.38
2023-02-09T10:52:56.239Z,21.20
2023-02-09T10:55:29.200Z,18.35
2023-02-09T10:58:24.118Z,23.55
2023-02-09T11:01:00.158Z,18.27
2023-02-09T11:03:29.177Z,18.23
2023-02-09T11:06:02.309Z,18.75
2023-02-09T11:08:39.714Z,17.95
2023-02-09T11:11:10.717Z,21.25
2023-02-09T11:13:40.430Z,21.65
2023-02-09T11:16:27.627Z,18.88
2023-02-09T11:19:00.515Z,19.15
2023-02-09T11:21:39.930Z,23.30
2023-02-09T11:24:11.683Z,20.60
2023-02-09T11:26:59.369Z,19.10
2023-02-09T11:29:35.122Z,27.38
2023-02-09T11:32:13.040Z,20.02
2023-02-09T11:34:56.140Z,16.58
2023-02-09T11:37:38.082Z,16.58
2023-02-09T11:40:24.744Z,19.05
2023-02-09T11:43:02.103Z,18.27
2023-02-09T11:45:33.651Z,17.27
2023-02-09T11:48:06.429Z,19.42
2023-02-09T11:50:40.408Z,19.50
2023-02-09T11:53:17.670Z,17.40
2023-02-09T11:55:49.360Z,18.77
2023-02-09T11:58:46.051Z,18.70
2023-02-09T12:01:23.485Z,19.58
2023-02-09T12:04:07.304Z,15.77
2023-02-09T12:06:40.329Z,15.15
2023-02-09T12:09:26.525Z,21.67
2023-02-09T12:12:03.837Z,12.95
2023-02-09T12:14:46.103Z,16.58
2023-02-09T12:17:19.666Z,16.08
2023-02-09T12:19:56.411Z,17.02
2023-02-09T12:22:50.510Z,17.90
2023-02-09T12:25:34.675Z,17.98
2023-02-09T12:28:17.132Z,19.48
2023-02-09T12:33:31.839Z,14.07
2023-02-09T12:36:02.627Z,14.93
2023-02-09T12:38:52.265Z,14.48
2023-02-09T12:41:25.614Z,18.17
2023-02-09T12:44:07.633Z,17.85
2023-02-09T12:46:53.950Z,14.13
2023-02-09T12:49:22.800Z,16.50
2023-02-09T12:52:07.156Z,15.48
2023-02-09T12:54:40.328Z,17.33
2023-02-09T12:57:42.384Z,19.58
2023-02-09T13:00:34.970Z,20.17
2023-02-09T13:03:22.222Z,16.10
2023-02-09T13:05:51.300Z,15.88
2023-02-09T13:08:30.953Z,15.18
2023-02-09T13:11:03.810Z,16.10
2023-02-09T13:13:41.645Z,19.42
2023-02-09T13:16:27.408Z,15.63
2023-02-09T13:19:00.948Z,16.90
2023-02-09T13:21:37.181Z,17.70
2023-02-09T13:24:09.770Z,14.88
2023-02-09T13:26:50.017Z,15.00
2023-02-09T13:29:22.113Z,14.50
2023-02-09T13:32:01.384Z,13.02
2023-02-09T13:34:34.846Z,18.67
2023-02-09T13:37:13.809Z,16.00
2023-02-09T13:39:44.266Z,16.17
2023-02-09T13:42:13.446Z,14.77
2023-02-09T13:44:46.651Z,14.15
2023-02-09T13:47:19.343Z,14.15
2023-02-09T13:49:57.318Z,13.43
2023-02-09T13:52:26.822Z,16.95
2023-02-09T13:54:55.552Z,18.80
2023-02-09T13:57:32.730Z,15.20
2023-02-09T14:00:09.843Z,12.13
2023-02-09T14:02:39.545Z,14.55
2023-02-09T14:05:09.534Z,19.75
2023-02-09T14:07:43.039Z,13.98
2023-02-09T14:10:14.248Z,12.55
2023-02-09T14:12:55.774Z,12.38
2023-02-09T14:15:48.635Z,14.40
2023-02-09T14:18:35.686Z,15.50
2023-02-09T14:21:15.643Z,12.70
2023-02-09T14:24:12.809Z,19.20
2023-02-09T14:26:52.045Z,14.05
2023-02-09T14:29:24.684Z,11.73
2023-02-09T14:31:54.629Z,15.18
2023-02-09T14:34:45.694Z,13.70
2023-02-09T14:37:31.844Z,10.30
2023-02-09T14:40:02.263Z,16.45
2023-02-09T14:42:33.006Z,13.88
2023-02-09T14:45:03.066Z,15.20
2023-02-09T14:47:38.718Z,13.75
2023-02-09T14:50:13.273Z,13.82
2023-02-09T14:52:46.702Z,12.68
2023-02-09T14:55:18.183Z,15.30
2023-02-09T14:57:48.370Z,14.75
2023-02-09T15:00:20.678Z,12.98
2023-02-09T15:08:05.823Z,17.38
2023-02-09T15:10:36.915Z,18.77
2023-02-09T15:13:08.278Z,13.07
2023-02-09T15:15:40.704Z,14.07
2023-02-09T15:18:15.134Z,11.43
2023-02-09T15:20:47.156Z,12.65
2023-02-09T15:23:15.502Z,16.08
2023-02-09T15:25:44.736Z,13.63
2023-02-09T15:28:16.224Z,15.90
2023-02-09T15:30:45.588Z,15.85
2023-02-09T15:33:14.036Z,16.52
2023-02-09T15:35:42.520Z,16.65
2023-02-09T15:38:18.669Z,15.57
2023-02-09T15:41:06.801Z,16.08
2023-02-09T15:43:49.079Z,17.52
2023-02-09T15:46:36.198Z,16.42
2023-02-09T15:49:05.837Z,17.77
2023-02-09T15:51:38.577Z,18.88
2023-02-09T15:54:17.534Z,18.17
2023-02-09T15:56:46.764Z,14.32
2023-02-09T15:59:19.600Z,18.98
2023-02-09T16:01:48.752Z,15.07
2023-02-09T16:04:16.744Z,15.20
2023-02-09T16:06:53.370Z,18.00
2023-02-09T16:09:28.723Z,14.70
2023-02-09T16:11:59.090Z,15.02
2023-02-09T16:14:28.954Z,17.95
2023-02-09T16:17:01.336Z,13.45
2023-02-09T16:19:29.825Z,15.45
2023-02-09T16:21:59.676Z,14.63
2023-02-09T16:24:32.907Z,17.52
2023-02-09T16:27:01.625Z,15.05
2023-02-09T16:29:30.106Z,15.57
2023-02-09T16:31:58.198Z,15.95
2023-02-09T16:34:26.470Z,13.25
2023-02-09T16:36:54.722Z,14.75
2023-02-09T16:39:23.878Z,17.33
2023-02-09T16:41:54.738Z,14.75
2023-02-09T16:44:25.207Z,16.30
2023-02-09T16:46:55.786Z,15.00
2023-02-09T16:49:31.858Z,16.52
2023-02-09T16:52:05.127Z,17.27
2023-02-09T16:54:38.142Z,17.00
2023-02-09T16:57:07.701Z,13.45
2023-02-09T16:59:35.895Z,14.27
2023-02-09T17:02:05.648Z,17.40
2023-02-09T17:04:38.182Z,19.25
2023-02-09T17:07:06.733Z,16.17
2023-02-09T17:09:35.765Z,12.68
2023-02-09T17:12:04.127Z,17.25
2023-02-09T17:14:36.560Z,17.00
2023-02-09T17:19:47.014Z,18.83
2023-02-09T17:22:16.715Z,17.85
2023-02-09T17:24:47.108Z,15.88
2023-02-09T17:27:27.289Z,14.93
2023-02-09T17:30:01.349Z,20.40
2023-02-09T17:32:29.802Z,20.42
2023-02-09T17:34:58.211Z,15.55
2023-02-09T17:37:26.503Z,17.92
2023-02-09T17:39:55.191Z,17.25
2023-02-09T17:42:26.035Z,17.33
2023-02-09T17:44:55.906Z,19.15
2023-02-09T17:47:26.724Z,14.90
2023-02-09T17:49:56.458Z,18.25
2023-02-09T17:52:24.825Z,17.33
2023-02-09T17:54:54.312Z,16.70
2023-02-09T17:57:22.682Z,16.63
2023-02-09T17:59:50.742Z,23.23
2023-02-09T18:02:20.836Z,15.02
2023-02-09T18:04:50.688Z,17.67
2023-02-09T18:07:20.558Z,19.38
2023-02-09T18:09:50.288Z,16.42
2023-02-09T18:12:20.596Z,18.10
2023-02-09T18:14:48.930Z,19.30
2023-02-09T18:17:17.241Z,19.60
2023-02-09T18:19:45.463Z,20.13
2023-02-09T18:22:17.736Z,20.65
2023-02-09T18:24:46.272Z,19.20
2023-02-09T18:27:16.233Z,23.75
2023-02-09T18:29:44.904Z,20.30
2023-02-09T18:32:16.870Z,19.38
2023-02-09T18:34:45.234Z,21.35
2023-02-09T18:37:17.869Z,20.55
2023-02-09T18:39:48.232Z,22.55
2023-02-09T18:42:17.314Z,21.52
2023-02-09T18:44:45.674Z,20.90
2023-02-09T18:47:13.688Z,21.65
2023-02-09T18:49:42.074Z,21.20
2023-02-09T18:52:10.382Z,22.88
2023-02-09T18:54:42.033Z,27.55
2023-02-09T18:57:10.070Z,21.90
2023-02-09T18:59:39.078Z,22.20
2023-02-09T19:02:10.224Z,22.48
2023-02-09T19:04:38.250Z,31.35
2023-02-09T19:07:09.575Z,22.48
2023-02-09T19:09:39.106Z,22.27
2023-02-09T19:12:08.859Z,19.13
2023-02-09T19:14:42.124Z,24.55
2023-02-09T19:17:14.556Z,23.48
2023-02-09T19:19:42.758Z,20.95
2023-02-09T19:22:14.818Z,23.70
2023-02-09T19:27:13.960Z,22.95
2023-02-09T19:29:42.391Z,23.48
2023-02-09T19:32:11.501Z,23.27
2023-02-09T19:34:42.909Z,20.77
2023-02-09T19:37:12.051Z,20.70
2023-02-09T19:39:42.582Z,22.80
2023-02-09T19:42:12.614Z,24.33
2023-02-09T19:44:40.846Z,26.10
2023-02-09T19:47:09.002Z,25.60
2023-02-09T19:49:38.958Z,28.80
2023-02-09T19:52:07.554Z,23.50
2023-02-09T19:54:36.141Z,26.50
2023-02-09T19:57:05.014Z,21.48
2023-02-09T19:59:34.641Z,24.23
2023-02-09T20:02:03.280Z,25.65
2023-02-09T20:04:31.601Z,22.33
2023-02-09T20:07:00.235Z,23.23
2023-02-09T20:09:29.381Z,24.85
2023-02-09T20:11:57.618Z,27.95
2023-02-09T20:14:30.077Z,21.67
2023-02-09T20:17:01.150Z,24.52
2023-02-09T20:19:29.510Z,26.48
2023-02-09T20:21:57.788Z,24.27
2023-02-09T20:24:26.361Z,25.05
2023-02-09T20:26:56.062Z,22.73
2023-02-09T20:29:25.407Z,27.33
2023-02-09T20:31:54.010Z,26.48
2023-02-09T20:34:23.667Z,24.05
2023-02-09T20:36:51.839Z,34.03
2023-02-09T20:39:22.462Z,30.90
2023-02-09T20:42:12.339Z,28.80
2023-02-09T20:44:58.182Z,26.92
2023-02-09T20:47:27.307Z,27.55
2023-02-09T20:50:01.623Z,26.20
2023-02-09T20:52:33.320Z,27.45
2023-02-09T20:55:05.751Z,25.75
2023-02-09T20:57:34.024Z,26.95
2023-02-09T21:00:02.222Z,26.48
2023-02-09T21:02:30.317Z,26.10
2023-02-09T21:05:00.808Z,25.88
2023-02-09T21:07:28.923Z,33.20
2023-02-09T21:09:58.347Z,23.80
2023-02-09T21:12:29.484Z,25.67
2023-02-09T21:14:58.962Z,29.70
2023-02-09T21:17:31.207Z,27.10
2023-02-09T21:20:01.594Z,26.47
2023-02-09T21:22:29.708Z,31.95
2023-02-09T21:24:58.290Z,23.42
2023-02-09T21:27:27.395Z,26.95
2023-02-09T21:29:57.160Z,22.33
2023-02-09T21:32:28.995Z,32.17
2023-02-09T21:34:57.315Z,26.42
2023-02-09T21:37:29.447Z,25.23
2023-02-09T21:42:31.746Z,26.85
2023-02-09T21:45:02.675Z,25.17
2023-02-09T21:47:34.813Z,26.48
2023-02-09T21:52:34.676Z,25.83
2023-02-09T21:55:03.254Z,26.95
2023-02-09T21:57:31.649Z,23.33
2023-02-09T22:00:05.016Z,26.45
2023-02-09T22:02:33.934Z,25.20
2023-02-09T22:05:02.863Z,25.60
2023-02-09T22:07:34.987Z,27.40
2023-02-09T22:10:05.362Z,19.87
2023-02-09T22:12:34.212Z,29.25
2023-02-09T22:15:14.097Z,25.10
2023-02-09T22:17:42.604Z,27.73
2023-02-09T22:20:11.965Z,23.83
2023-02-09T22:22:44.151Z,27.48
2023-02-09T22:25:14.560Z,22.10
2023-02-09T22:27:44.316Z,25.27
2023-02-09T22:30:14.054Z,22.02
2023-02-09T22:32:43.768Z,23.52
2023-02-09T22:35:19.588Z,30.00
2023-02-09T22:37:49.879Z,24.83
2023-02-09T22:40:22.975Z,24.48
2023-02-09T22:42:51.658Z,22.48
2023-02-09T22:45:20.974Z,25.85
2023-02-09T22:47:49.471Z,29.63
2023-02-09T22:50:18.204Z,28.10
2023-02-09T22:52:47.243Z,26.90
2023-02-09T22:55:17.209Z,23.63
2023-02-09T22:57:48.963Z,24.15
2023-02-09T23:00:18.276Z,21.95
2023-02-09T23:02:46.475Z,21.67
2023-02-09T23:05:16.446Z,26.80
2023-02-09T23:07:46.575Z,23.35
2023-02-09T23:10:18.210Z,26.25
2023-02-09T23:12:46.564Z,23.13
2023-02-09T23:15:14.686Z,28.33
2023-02-09T23:17:44.110Z,25.17
2023-02-09T23:20:12.963Z,23.45
2023-02-09T23:22:41.162Z,28.23
2023-02-09T23:25:09.658Z,23.98
2023-02-09T23:27:39.133Z,27.58
2023-02-09T23:30:08.798Z,26.58
2023-02-09T23:32:40.339Z,24.80
2023-02-09T23:35:09.301Z,33.15
2023-02-09T23:37:38.354Z,26.35
2023-02-09T23:40:07.951Z,35.30
2023-02-09T23:42:36.142Z,26.38
2023-02-09T23:45:06.385Z,26.50
2023-02-09T23:47:34.654Z,27.88
2023-02-09T23:50:02.692Z,27.85
2023-02-09T23:52:31.211Z,26.63
2023-02-09T23:54:59.702Z,27.40
2023-02-09T23:57:27.826Z,33.28
2023-02-09T23:59:56.790Z,29.25
